^^
Marion, Virginia Banner
 

Adwolf, VA. Station Historical Data
[ Providing Data Since 6/07/2007 ]
Station Historical Data
 
Daily Summary for August 19, 2017 Units:  Both    English   Metric
« Previous Day
Next Day »
Daily Weekly Monthly Yearly Custom
  Current: High: Low: Average:
Temperature: 66.2 °F /  19 °C 68.4 °F /  20.2 °C 65.1 °F /  18.4 °C 66.3 °F /  19.1 °C
Dew Point: 64.4 °F /  18 °C 66.3 °F /  19.1 °C 63.2 °F /  17.3 °C 64.3 °F /  17.9 °C
Humidity: 94% 94% 92% 93%
Wind Speed: 1.2mph /  1.9km/h 2.3mph /  3.7km/h - 0.6mph /  1km/h
Wind Gust: 0.0mph /  0km/h 2.3mph /  3.7km/h - -
WindSSW - - SSW
Pressure: 30.08 in /  1018.5 hPa 30.09 in /  1018.8 hPa 30.07 in /  1018.2 hPa -
Precipitation: 0.00 in /  0 mm      
Historical Graphs
 
 
Tabular Data for August 19, 2017
Time Temperature Dew Point Pressure Wind Wind Speed Wind Gust Humidity Rainfall Rate (Hourly) solar Conditions
00:03 68.4 °F /  20.2 °C 65.9 °F /  18.8 °C 30.07in /  1018.2hPa Calm     92% 0.00in /  0mm WeatherDisplay:10.37 W/m2 RA
00:08 68.4 °F /  20.2 °C 66.3 °F /  19.1 °C 30.08in /  1018.5hPa Calm     93% 0.00in /  0mm WeatherDisplay:10.37 W/m2 RA
00:13 68.4 °F /  20.2 °C 66.3 °F /  19.1 °C 30.08in /  1018.5hPa Calm     93% 0.00in /  0mm WeatherDisplay:10.37 W/m2 CLR
00:18 68.3 °F /  20.2 °C 66.2 °F /  19 °C 30.08in /  1018.5hPa SSW 1.2mph /  1.9km/h 1.2mph /  1.9km/h 93% 0.00in /  0mm WeatherDisplay:10.37 W/m2 CLR
00:23 68.2 °F /  20.1 °C 66.1 °F /  18.9 °C 30.09in /  1018.8hPa Calm     93% 0.00in /  0mm WeatherDisplay:10.37 W/m2 CLR
00:28 68.1 °F /  20.1 °C 66.0 °F /  18.9 °C 30.09in /  1018.8hPa Calm     93% 0.00in /  0mm WeatherDisplay:10.37 W/m2 CLR
00:33 68.0 °F /  20 °C 65.9 °F /  18.8 °C 30.09in /  1018.8hPa Calm     93% 0.00in /  0mm WeatherDisplay:10.37 W/m2 CLR
00:38 67.8 °F /  19.9 °C 65.4 °F /  18.6 °C 30.09in /  1018.8hPa SSW 1.2mph /  1.9km/h   92% 0.00in /  0mm WeatherDisplay:10.37 W/m2 CLR
00:43 67.7 °F /  19.8 °C 65.6 °F /  18.7 °C 30.09in /  1018.8hPa SSW 1.2mph /  1.9km/h 1.2mph /  1.9km/h 93% 0.00in /  0mm WeatherDisplay:10.37 W/m2 CLR
00:48 67.5 °F /  19.7 °C 65.1 °F /  18.4 °C 30.09in /  1018.8hPa SSW 1.2mph /  1.9km/h 1.2mph /  1.9km/h 92% 0.00in /  0mm WeatherDisplay:10.37 W/m2 CLR
00:53 67.3 °F /  19.6 °C 65.2 °F /  18.4 °C 30.09in /  1018.8hPa Calm     93% 0.00in /  0mm WeatherDisplay:10.37 W/m2 CLR
00:58 67.1 °F /  19.5 °C 64.7 °F /  18.2 °C 30.09in /  1018.8hPa Calm     92% 0.00in /  0mm WeatherDisplay:10.37 W/m2 CLR
01:03 66.9 °F /  19.4 °C 64.5 °F /  18.1 °C 30.09in /  1018.8hPa SSW 1.0mph /  1.6km/h   92% 0.00in /  0mm WeatherDisplay:10.37 W/m2 CLR
01:08 66.8 °F /  19.3 °C 64.7 °F /  18.2 °C 30.09in /  1018.8hPa Calm     93% 0.00in /  0mm WeatherDisplay:10.37 W/m2 CLR
01:13 66.7 °F /  19.3 °C 64.6 °F /  18.1 °C 30.09in /  1018.8hPa Calm     93% 0.00in /  0mm WeatherDisplay:10.37 W/m2 CLR
01:18 66.7 °F /  19.3 °C 64.6 °F /  18.1 °C 30.09in /  1018.8hPa SSW 1.2mph /  1.9km/h 1.2mph /  1.9km/h 93% 0.00in /  0mm WeatherDisplay:10.37 W/m2 CLR
01:23 66.6 °F /  19.2 °C 64.5 °F /  18.1 °C 30.09in /  1018.8hPa SSW 1.2mph /  1.9km/h 1.2mph /  1.9km/h 93% 0.00in /  0mm WeatherDisplay:10.37 W/m2 CLR
01:28 66.5 °F /  19.2 °C 64.4 °F /  18 °C 30.09in /  1018.8hPa Calm     93% 0.00in /  0mm WeatherDisplay:10.37 W/m2 CLR
01:38 66.3 °F /  19.1 °C 64.2 °F /  17.9 °C 30.09in /  1018.8hPa SSW 1.2mph /  1.9km/h   93% 0.00in /  0mm WeatherDisplay:10.37 W/m2 CLR
01:43 66.3 °F /  19.1 °C 64.2 °F /  17.9 °C 30.09in /  1018.8hPa Calm     93% 0.00in /  0mm WeatherDisplay:10.37 W/m2 CLR
01:48 66.2 °F /  19 °C 64.1 °F /  17.8 °C 30.09in /  1018.8hPa SSW 1.2mph /  1.9km/h 1.2mph /  1.9km/h 93% 0.00in /  0mm WeatherDisplay:10.37 W/m2 CLR
01:53 66.2 °F /  19 °C 64.1 °F /  17.8 °C 30.09in /  1018.8hPa Calm     93% 0.00in /  0mm WeatherDisplay:10.37 W/m2 CLR
01:58 66.1 °F /  18.9 °C 64.0 °F /  17.8 °C 30.09in /  1018.8hPa SSW 1.2mph /  1.9km/h 1.2mph /  1.9km/h 93% 0.00in /  0mm WeatherDisplay:10.37 W/m2 CLR
02:03 65.9 °F /  18.8 °C 63.8 °F /  17.7 °C 30.09in /  1018.8hPa SSW 1.2mph /  1.9km/h 1.2mph /  1.9km/h 93% 0.00in /  0mm WeatherDisplay:10.37 W/m2 CLR
02:08 65.8 °F /  18.8 °C 63.7 °F /  17.6 °C 30.08in /  1018.5hPa Calm     93% 0.00in /  0mm WeatherDisplay:10.37 W/m2 CLR
02:13 65.7 °F /  18.7 °C 63.6 °F /  17.6 °C 30.08in /  1018.5hPa Calm     93% 0.00in /  0mm WeatherDisplay:10.37 W/m2 CLR
02:18 65.6 °F /  18.7 °C 63.5 °F /  17.5 °C 30.08in /  1018.5hPa Calm     93% 0.00in /  0mm WeatherDisplay:10.37 W/m2 CLR
02:23 65.6 °F /  18.7 °C 63.5 °F /  17.5 °C 30.08in /  1018.5hPa Calm     93% 0.00in /  0mm WeatherDisplay:10.37 W/m2 CLR
02:28 65.5 °F /  18.6 °C 63.4 °F /  17.4 °C 30.08in /  1018.5hPa Calm     93% 0.00in /  0mm WeatherDisplay:10.37 W/m2 CLR
02:33 65.4 °F /  18.6 °C 63.3 °F /  17.4 °C 30.08in /  1018.5hPa Calm     93% 0.00in /  0mm WeatherDisplay:10.37 W/m2 CLR
02:38 65.4 °F /  18.6 °C 63.3 °F /  17.4 °C 30.08in /  1018.5hPa SSW 1.0mph /  1.6km/h 1.0mph /  1.6km/h 93% 0.00in /  0mm WeatherDisplay:10.37 W/m2 CLR
02:43 65.4 °F /  18.6 °C 63.6 °F /  17.6 °C 30.08in /  1018.5hPa SSW 1.2mph /  1.9km/h 1.2mph /  1.9km/h 94% 0.00in /  0mm WeatherDisplay:10.37 W/m2 CLR
02:48 65.4 °F /  18.6 °C 63.6 °F /  17.6 °C 30.08in /  1018.5hPa Calm     94% 0.00in /  0mm WeatherDisplay:10.37 W/m2 CLR
02:53 65.3 °F /  18.5 °C 63.2 °F /  17.3 °C 30.08in /  1018.5hPa Calm     93% 0.00in /  0mm WeatherDisplay:10.37 W/m2 CLR
02:58 65.3 °F /  18.5 °C 63.5 °F /  17.5 °C 30.08in /  1018.5hPa Calm     94% 0.00in /  0mm WeatherDisplay:10.37 W/m2 CLR
03:03 65.2 °F /  18.4 °C 63.4 °F /  17.4 °C 30.08in /  1018.5hPa SSW 1.2mph /  1.9km/h 1.2mph /  1.9km/h 94% 0.00in /  0mm WeatherDisplay:10.37 W/m2 CLR
03:08 65.1 °F /  18.4 °C 63.3 °F /  17.4 °C 30.08in /  1018.5hPa Calm     94% 0.00in /  0mm WeatherDisplay:10.37 W/m2 CLR
03:13 65.2 °F /  18.4 °C 63.4 °F /  17.4 °C 30.08in /  1018.5hPa Calm     94% 0.00in /  0mm WeatherDisplay:10.37 W/m2 CLR
03:15 65.2 °F /  18.4 °C 63.4 °F /  17.4 °C 30.08in /  1018.5hPa Calm     94% 0.00in /  0mm WeatherDisplay:10.37 W/m2 CLR
03:20 65.3 °F /  18.5 °C 63.5 °F /  17.5 °C 30.08in /  1018.5hPa Calm     94% 0.00in /  0mm WeatherDisplay:10.37 W/m2 CLR
03:25 65.4 °F /  18.6 °C 63.6 °F /  17.6 °C 30.08in /  1018.5hPa Calm     94% 0.00in /  0mm WeatherDisplay:10.37 W/m2 CLR
03:30 65.5 °F /  18.6 °C 63.7 °F /  17.6 °C 30.08in /  1018.5hPa Calm     94% 0.00in /  0mm WeatherDisplay:10.37 W/m2 CLR
03:35 65.6 °F /  18.7 °C 63.8 °F /  17.7 °C 30.08in /  1018.5hPa Calm     94% 0.00in /  0mm WeatherDisplay:10.37 W/m2 CLR
03:40 65.6 °F /  18.7 °C 63.8 °F /  17.7 °C 30.08in /  1018.5hPa Calm     94% 0.00in /  0mm WeatherDisplay:10.37 W/m2 CLR
03:45 65.7 °F /  18.7 °C 63.9 °F /  17.7 °C 30.08in /  1018.5hPa SSW 1.2mph /  1.9km/h 1.2mph /  1.9km/h 94% 0.00in /  0mm WeatherDisplay:10.37 W/m2 CLR
03:50 65.7 °F /  18.7 °C 63.9 °F /  17.7 °C 30.08in /  1018.5hPa Calm   0.2mph /  0.3km/h 94% 0.00in /  0mm WeatherDisplay:10.37 W/m2 CLR
03:55 65.7 °F /  18.7 °C 63.9 °F /  17.7 °C 30.08in /  1018.5hPa SSW 1.2mph /  1.9km/h 1.2mph /  1.9km/h 94% 0.00in /  0mm WeatherDisplay:10.37 W/m2 BKN
04:00 65.8 °F /  18.8 °C 64.0 °F /  17.8 °C 30.08in /  1018.5hPa SSW 1.0mph /  1.6km/h   94% 0.00in /  0mm WeatherDisplay:10.37 W/m2 BKN
04:05 66.0 °F /  18.9 °C 64.2 °F /  17.9 °C 30.08in /  1018.5hPa SSW 1.2mph /  1.9km/h   94% 0.00in /  0mm WeatherDisplay:10.37 W/m2 BKN
04:10 66.0 °F /  18.9 °C 64.2 °F /  17.9 °C 30.07in /  1018.2hPa SSW 1.2mph /  1.9km/h   94% 0.00in /  0mm WeatherDisplay:10.37 W/m2 BKN
04:15 66.0 °F /  18.9 °C 64.2 °F /  17.9 °C 30.07in /  1018.2hPa SSW 2.0mph /  3.2km/h 2.0mph /  3.2km/h 94% 0.00in /  0mm WeatherDisplay:10.37 W/m2 OVC
04:20 66.0 °F /  18.9 °C 64.2 °F /  17.9 °C 30.07in /  1018.2hPa SSW 2.3mph /  3.7km/h   94% 0.00in /  0mm WeatherDisplay:10.37 W/m2 OVC
04:25 66.0 °F /  18.9 °C 64.2 °F /  17.9 °C 30.07in /  1018.2hPa Calm     94% 0.00in /  0mm WeatherDisplay:10.37 W/m2 OVC
04:30 66.0 °F /  18.9 °C 64.2 °F /  17.9 °C 30.07in /  1018.2hPa Calm     94% 0.00in /  0mm WeatherDisplay:10.37 W/m2 OVC
04:35 66.0 °F /  18.9 °C 64.2 °F /  17.9 °C 30.07in /  1018.2hPa Calm     94% 0.00in /  0mm WeatherDisplay:10.37 W/m2 OVC
04:40 66.0 °F /  18.9 °C 64.2 °F /  17.9 °C 30.08in /  1018.5hPa Calm     94% 0.00in /  0mm WeatherDisplay:10.37 W/m2 OVC
04:45 66.2 °F /  19 °C 64.4 °F /  18 °C 30.07in /  1018.2hPa SSW 2.0mph /  3.2km/h 2.0mph /  3.2km/h 94% 0.00in /  0mm WeatherDisplay:10.37 W/m2 OVC
04:50 66.2 °F /  19 °C 64.4 °F /  18 °C 30.08in /  1018.5hPa SSW 1.2mph /  1.9km/h 1.2mph /  1.9km/h 94% 0.00in /  0mm WeatherDisplay:10.37 W/m2 OVC
04:55 66.2 °F /  19 °C 64.4 °F /  18 °C 30.07in /  1018.2hPa SSW 1.2mph /  1.9km/h 1.2mph /  1.9km/h 94% 0.00in /  0mm WeatherDisplay:10.37 W/m2 OVC
05:00 66.3 °F /  19.1 °C 64.5 °F /  18.1 °C 30.07in /  1018.2hPa SSW 1.2mph /  1.9km/h 1.2mph /  1.9km/h 94% 0.00in /  0mm WeatherDisplay:10.37 W/m2 OVC
05:05 66.3 °F /  19.1 °C 64.5 °F /  18.1 °C 30.07in /  1018.2hPa SSW 1.2mph /  1.9km/h   94% 0.00in /  0mm WeatherDisplay:10.37 W/m2 OVC
05:10 66.2 °F /  19 °C 64.4 °F /  18 °C 30.07in /  1018.2hPa SSW 2.3mph /  3.7km/h 2.3mph /  3.7km/h 94% 0.00in /  0mm WeatherDisplay:10.37 W/m2 OVC
05:15 66.2 °F /  19 °C 64.4 °F /  18 °C 30.07in /  1018.2hPa SSW 1.2mph /  1.9km/h 1.2mph /  1.9km/h 94% 0.00in /  0mm WeatherDisplay:10.37 W/m2 OVC
05:20 66.2 °F /  19 °C 64.4 °F /  18 °C 30.08in /  1018.5hPa SSW 1.2mph /  1.9km/h   94% 0.00in /  0mm WeatherDisplay:10.37 W/m2 OVC
Smyth Weather
Compliments of Weather Underground - 1.75 mb